createdAt,value
2022-08-31T00:01:43.304Z,23.08
2022-08-31T00:03:56.821Z,23.35
2022-08-31T00:06:02.158Z,23.31
2022-08-31T00:08:05.970Z,23.41
2022-08-31T00:10:15.049Z,23.39
2022-08-31T00:12:18.716Z,23.32
2022-08-31T00:14:22.167Z,23.31
2022-08-31T00:16:27.130Z,23.30
2022-08-31T00:18:30.698Z,23.29
2022-08-31T00:20:35.070Z,23.26
2022-08-31T00:22:38.534Z,23.29
2022-08-31T00:24:42.475Z,23.29
2022-08-31T00:26:47.528Z,23.34
2022-08-31T00:28:51.797Z,22.89
2022-08-31T00:30:55.213Z,23.37
2022-08-31T00:32:58.890Z,23.44
2022-08-31T00:35:03.061Z,23.42
2022-08-31T00:37:06.478Z,23.46
2022-08-31T00:39:09.927Z,23.46
2022-08-31T00:41:13.356Z,23.44
2022-08-31T00:43:37.928Z,23.45
2022-08-31T00:45:41.340Z,23.31
2022-08-31T00:47:44.932Z,23.03
2022-08-31T00:49:51.431Z,23.02
2022-08-31T00:52:00.220Z,22.98
2022-08-31T00:54:05.627Z,22.99
2022-08-31T00:56:09.935Z,22.98
2022-08-31T00:58:14.310Z,22.96
2022-08-31T01:00:21.611Z,22.85
2022-08-31T01:02:25.951Z,22.80
2022-08-31T01:04:31.468Z,22.44
2022-08-31T01:06:35.415Z,22.59
2022-08-31T01:08:38.962Z,22.69
2022-08-31T01:10:46.024Z,22.63
2022-08-31T01:12:52.331Z,22.60
2022-08-31T01:14:56.696Z,22.56
2022-08-31T01:17:02.557Z,22.54
2022-08-31T01:19:12.857Z,22.47
2022-08-31T01:21:26.863Z,22.30
2022-08-31T01:23:34.406Z,22.29
2022-08-31T01:25:39.764Z,22.27
2022-08-31T01:27:43.578Z,22.28
2022-08-31T01:29:46.980Z,22.27
2022-08-31T01:31:50.403Z,22.26
2022-08-31T01:33:53.990Z,22.12
2022-08-31T01:35:59.435Z,22.30
2022-08-31T01:38:03.617Z,22.10
2022-08-31T01:40:12.642Z,21.97
2022-08-31T01:42:16.439Z,21.91
2022-08-31T01:44:22.352Z,21.91
2022-08-31T01:46:27.011Z,21.80
2022-08-31T01:48:31.149Z,21.69
2022-08-31T01:50:35.611Z,21.79
2022-08-31T01:52:39.712Z,21.76
2022-08-31T01:54:43.239Z,21.82
2022-08-31T01:56:49.654Z,21.86
2022-08-31T01:59:05.132Z,21.83
2022-08-31T02:01:33.573Z,21.68
2022-08-31T02:03:38.157Z,21.49
2022-08-31T02:05:41.973Z,21.08
2022-08-31T02:07:46.374Z,21.19
2022-08-31T02:09:50.007Z,21.02
2022-08-31T02:11:55.754Z,21.16
2022-08-31T02:13:59.491Z,21.26
2022-08-31T02:16:03.801Z,21.23
2022-08-31T02:18:08.830Z,21.29
2022-08-31T02:20:16.686Z,21.19
2022-08-31T02:22:20.036Z,21.13
2022-08-31T02:24:23.422Z,21.21
2022-08-31T02:26:27.062Z,21.08
2022-08-31T02:28:31.847Z,21.28
2022-08-31T02:30:35.477Z,21.29
2022-08-31T02:32:39.131Z,21.19
2022-08-31T02:34:42.760Z,21.12
2022-08-31T02:36:46.385Z,21.08
2022-08-31T02:38:50.123Z,21.03
2022-08-31T02:40:55.211Z,20.88
2022-08-31T02:42:58.765Z,20.25
2022-08-31T02:45:05.119Z,20.73
2022-08-31T02:47:08.559Z,20.65
2022-08-31T02:49:27.505Z,20.51
2022-08-31T02:51:30.997Z,20.42
2022-08-31T02:53:34.692Z,20.52
2022-08-31T02:55:38.592Z,20.40
2022-08-31T02:57:42.153Z,20.62
2022-08-31T02:59:47.551Z,20.63
2022-08-31T03:01:54.242Z,20.76
2022-08-31T03:03:58.493Z,20.74
2022-08-31T03:06:02.295Z,20.74
2022-08-31T03:08:05.909Z,20.72
2022-08-31T03:10:11.910Z,20.70
2022-08-31T03:12:15.329Z,20.71
2022-08-31T03:14:19.019Z,20.69
2022-08-31T03:16:22.492Z,20.70
2022-08-31T03:18:27.617Z,20.76
2022-08-31T03:20:31.571Z,20.71
2022-08-31T03:22:38.706Z,20.63
2022-08-31T03:24:44.006Z,20.61
2022-08-31T03:26:47.510Z,20.56
2022-08-31T03:28:50.978Z,20.39
2022-08-31T03:31:14.492Z,20.30
2022-08-31T03:33:18.226Z,20.20
2022-08-31T03:35:23.742Z,20.33
2022-08-31T03:37:28.227Z,20.32
2022-08-31T03:39:35.351Z,20.04
2022-08-31T03:41:38.837Z,20.34
2022-08-31T03:43:43.064Z,20.20
2022-08-31T03:45:47.279Z,20.20
2022-08-31T03:47:51.050Z,20.06
2022-08-31T03:49:54.498Z,20.09
2022-08-31T03:52:06.930Z,20.11
2022-08-31T03:54:19.602Z,20.02
2022-08-31T03:56:23.370Z,20.06
2022-08-31T03:58:27.399Z,20.07
2022-08-31T04:00:32.100Z,20.13
2022-08-31T04:02:40.847Z,20.10
2022-08-31T04:05:03.121Z,20.19
2022-08-31T04:07:26.547Z,20.25
2022-08-31T04:09:58.793Z,20.25
2022-08-31T04:12:31.591Z,20.16
2022-08-31T04:14:47.178Z,20.03
2022-08-31T04:17:12.653Z,19.94
2022-08-31T04:19:27.379Z,19.85
2022-08-31T04:21:36.328Z,19.96
2022-08-31T04:23:41.531Z,20.01
2022-08-31T04:25:45.096Z,19.69
2022-08-31T04:27:50.342Z,19.42
2022-08-31T04:29:54.787Z,19.40
2022-08-31T04:31:58.579Z,19.43
2022-08-31T04:34:02.471Z,19.57
2022-08-31T04:36:08.026Z,19.48
2022-08-31T04:38:12.420Z,19.63
2022-08-31T04:40:20.260Z,19.59
2022-08-31T04:42:29.716Z,19.60
2022-08-31T04:44:33.187Z,19.63
2022-08-31T04:46:39.971Z,19.60
2022-08-31T04:48:43.538Z,19.66
2022-08-31T04:50:50.639Z,19.66
2022-08-31T04:53:03.633Z,19.72
2022-08-31T04:55:16.521Z,19.78
2022-08-31T04:57:21.565Z,19.83
2022-08-31T04:59:27.241Z,19.73
2022-08-31T05:01:49.367Z,19.81
2022-08-31T05:04:16.845Z,19.91
2022-08-31T05:06:22.899Z,19.91
2022-08-31T05:08:27.803Z,19.94
2022-08-31T05:10:31.258Z,19.98
2022-08-31T05:12:36.054Z,20.02
2022-08-31T05:14:39.551Z,19.95
2022-08-31T05:16:56.677Z,19.91
2022-08-31T05:19:01.220Z,19.82
2022-08-31T05:21:10.457Z,19.77
2022-08-31T05:23:14.127Z,19.78
2022-08-31T05:25:17.981Z,19.80
2022-08-31T05:27:21.610Z,19.80
2022-08-31T05:29:27.399Z,19.80
2022-08-31T05:31:52.193Z,19.80
2022-08-31T05:33:57.030Z,19.74
2022-08-31T05:36:10.854Z,19.65
2022-08-31T05:38:15.822Z,19.66
2022-08-31T05:40:19.433Z,19.71
2022-08-31T05:42:22.969Z,19.82
2022-08-31T05:44:29.582Z,19.85
2022-08-31T05:46:34.562Z,19.87
2022-08-31T05:48:39.264Z,19.75
2022-08-31T05:50:46.915Z,19.76
2022-08-31T05:52:50.976Z,19.87
2022-08-31T05:54:54.508Z,19.93
2022-08-31T05:57:01.429Z,19.99
2022-08-31T05:59:06.044Z,19.95
2022-08-31T06:01:16.201Z,20.02
2022-08-31T06:03:54.099Z,20.02
2022-08-31T06:05:57.980Z,20.10
2022-08-31T06:08:01.395Z,20.11
2022-08-31T06:10:06.703Z,20.38
2022-08-31T06:12:10.397Z,20.53
2022-08-31T06:14:15.421Z,20.58
2022-08-31T06:16:22.976Z,20.68
2022-08-31T06:18:26.825Z,20.90
2022-08-31T06:20:30.712Z,20.61
2022-08-31T06:22:37.290Z,20.65
2022-08-31T06:24:45.843Z,20.81
2022-08-31T06:26:56.815Z,20.92
2022-08-31T06:29:07.070Z,20.96
2022-08-31T06:31:16.654Z,21.00
2022-08-31T06:33:21.819Z,21.13
2022-08-31T06:35:40.872Z,21.18
2022-08-31T06:38:02.854Z,21.23
2022-08-31T06:40:34.605Z,21.23
2022-08-31T06:43:13.988Z,21.13
2022-08-31T06:45:30.070Z,20.72
2022-08-31T06:47:51.914Z,20.35
2022-08-31T06:49:57.823Z,20.82
2022-08-31T06:52:01.365Z,21.00
2022-08-31T06:54:27.875Z,20.90
2022-08-31T06:56:50.651Z,20.90
2022-08-31T06:59:28.801Z,21.08
2022-08-31T07:01:51.608Z,21.18
2022-08-31T07:04:10.584Z,20.96
2022-08-31T07:06:17.941Z,21.08
2022-08-31T07:08:23.566Z,21.02
2022-08-31T07:10:27.826Z,20.92
2022-08-31T07:12:31.570Z,20.91
2022-08-31T07:14:35.679Z,20.79
2022-08-31T07:16:40.653Z,20.85
2022-08-31T07:18:45.333Z,20.86
2022-08-31T07:20:49.439Z,20.74
2022-08-31T07:22:54.850Z,20.79
2022-08-31T07:25:11.016Z,20.72
2022-08-31T07:27:18.445Z,20.60
2022-08-31T07:29:40.654Z,20.72
2022-08-31T07:31:48.509Z,20.61
2022-08-31T07:33:56.483Z,20.61
2022-08-31T07:36:01.314Z,20.70
2022-08-31T07:38:45.628Z,20.68
2022-08-31T07:41:08.203Z,20.57
2022-08-31T07:43:11.866Z,20.56
2022-08-31T07:45:22.976Z,20.41
2022-08-31T07:47:30.125Z,20.29
2022-08-31T07:49:35.484Z,20.60
2022-08-31T07:51:50.494Z,20.53
2022-08-31T07:54:06.855Z,20.58
2022-08-31T07:56:18.040Z,20.62
2022-08-31T07:58:22.652Z,20.50
2022-08-31T08:00:28.922Z,20.53
2022-08-31T08:02:38.289Z,20.58
2022-08-31T08:04:44.298Z,20.54
2022-08-31T08:07:06.949Z,20.45
2022-08-31T08:09:24.314Z,20.83
2022-08-31T08:11:45.234Z,20.85
2022-08-31T08:14:08.640Z,20.90
2022-08-31T08:16:37.590Z,21.03
2022-08-31T08:18:57.353Z,21.03
2022-08-31T08:21:05.108Z,21.08
2022-08-31T08:23:13.578Z,21.17
2022-08-31T08:25:43.431Z,21.32
2022-08-31T08:27:55.618Z,21.06
2022-08-31T08:30:14.133Z,21.13
2022-08-31T08:32:19.048Z,21.35
2022-08-31T08:34:32.704Z,21.20
2022-08-31T08:36:40.882Z,21.15
2022-08-31T08:38:47.291Z,21.31
2022-08-31T08:40:52.838Z,21.39
2022-08-31T08:42:56.684Z,21.20
2022-08-31T08:45:00.417Z,21.48
2022-08-31T08:47:07.957Z,21.55
2022-08-31T08:49:25.973Z,21.63
2022-08-31T08:51:34.830Z,21.68
2022-08-31T08:53:42.136Z,21.72
2022-08-31T08:56:23.154Z,21.87
2022-08-31T08:58:26.822Z,22.05
2022-08-31T09:00:30.841Z,22.12
2022-08-31T09:02:43.736Z,21.94
2022-08-31T09:05:04.752Z,22.13
2022-08-31T09:07:47.250Z,22.12
2022-08-31T09:10:01.686Z,22.30
2022-08-31T09:12:24.777Z,22.50
2022-08-31T09:14:48.228Z,22.35
2022-08-31T09:17:01.168Z,22.58
2022-08-31T09:19:08.458Z,22.80
2022-08-31T09:21:20.829Z,22.99
2022-08-31T09:23:28.048Z,22.83
2022-08-31T09:25:38.604Z,22.86
2022-08-31T09:27:58.062Z,22.67
2022-08-31T09:30:03.154Z,22.72
2022-08-31T09:32:09.840Z,22.93
2022-08-31T09:34:29.539Z,23.05
2022-08-31T09:36:40.888Z,22.95
2022-08-31T09:38:46.833Z,23.15
2022-08-31T09:40:53.080Z,22.83
2022-08-31T09:43:07.409Z,22.97
2022-08-31T09:45:22.389Z,23.01
2022-08-31T09:47:48.577Z,23.11
2022-08-31T09:49:56.624Z,23.01
2022-08-31T09:52:43.818Z,23.17
2022-08-31T09:55:14.174Z,23.08
2022-08-31T09:57:18.600Z,23.40
2022-08-31T09:59:39.996Z,23.45
2022-08-31T10:01:45.871Z,23.50
2022-08-31T10:03:50.259Z,23.50
2022-08-31T10:05:54.909Z,23.33
2022-08-31T10:08:04.946Z,23.25
2022-08-31T10:10:28.195Z,23.48
2022-08-31T10:12:42.004Z,23.40
2022-08-31T10:14:52.127Z,23.27
2022-08-31T10:17:02.764Z,23.29
2022-08-31T10:19:09.642Z,23.27
2022-08-31T10:21:21.188Z,23.32
2022-08-31T10:23:33.258Z,23.09
2022-08-31T10:25:46.662Z,23.19
2022-08-31T10:27:55.924Z,23.04
2022-08-31T10:30:06.779Z,22.56
2022-08-31T10:32:24.743Z,22.87
2022-08-31T10:34:51.516Z,23.13
2022-08-31T10:37:03.549Z,23.69
2022-08-31T10:39:20.379Z,24.02
2022-08-31T10:41:30.814Z,24.21
2022-08-31T10:43:40.499Z,24.33
2022-08-31T10:45:49.008Z,24.55
2022-08-31T10:47:55.861Z,24.44
2022-08-31T10:50:03.046Z,24.43
2022-08-31T10:52:11.926Z,24.28
2022-08-31T10:54:29.552Z,24.62
2022-08-31T10:56:41.427Z,24.59
2022-08-31T10:59:02.307Z,24.86
2022-08-31T11:01:13.651Z,24.68
2022-08-31T11:03:26.033Z,24.60
2022-08-31T11:05:35.182Z,24.41
2022-08-31T11:07:48.499Z,24.43
2022-08-31T11:10:05.426Z,24.31
2022-08-31T11:12:13.601Z,24.56
2022-08-31T11:14:45.266Z,24.62
2022-08-31T11:17:15.726Z,24.49
2022-08-31T11:19:39.166Z,24.34
2022-08-31T11:22:00.023Z,24.30
2022-08-31T11:24:37.401Z,23.98
2022-08-31T11:26:50.913Z,24.27
2022-08-31T11:28:58.801Z,24.14
2022-08-31T11:31:07.203Z,24.53
2022-08-31T11:33:20.512Z,24.51
2022-08-31T11:36:07.243Z,24.52
2022-08-31T11:38:52.541Z,24.42
2022-08-31T11:41:02.873Z,24.57
2022-08-31T11:43:06.658Z,24.66
2022-08-31T11:45:27.094Z,24.84
2022-08-31T11:47:39.349Z,24.85
2022-08-31T11:49:49.919Z,24.73
2022-08-31T11:51:55.686Z,25.10
2022-08-31T11:54:00.748Z,24.94
2022-08-31T11:56:06.655Z,24.95
2022-08-31T11:58:25.842Z,24.85
2022-08-31T12:00:44.062Z,24.72
2022-08-31T12:03:04.632Z,24.36
2022-08-31T12:05:09.500Z,24.37
2022-08-31T12:07:17.248Z,24.36
2022-08-31T12:09:41.374Z,24.64
2022-08-31T12:11:54.037Z,24.52
2022-08-31T12:14:02.594Z,24.57
2022-08-31T12:16:20.893Z,24.51
2022-08-31T12:18:41.131Z,24.32
2022-08-31T12:21:13.071Z,24.30
2022-08-31T12:23:38.794Z,24.41
2022-08-31T12:25:52.689Z,24.56
2022-08-31T12:28:08.848Z,24.60
2022-08-31T12:30:18.157Z,24.61
2022-08-31T12:32:32.376Z,24.61
2022-08-31T12:34:39.107Z,24.45
2022-08-31T12:36:44.231Z,24.81
2022-08-31T12:38:47.633Z,24.91
2022-08-31T12:40:54.555Z,24.82
2022-08-31T12:43:06.371Z,24.91
2022-08-31T12:45:13.692Z,24.74
2022-08-31T12:47:27.017Z,24.68
2022-08-31T12:49:52.067Z,24.70
2022-08-31T12:52:09.085Z,24.77
2022-08-31T12:54:45.296Z,24.59
2022-08-31T12:56:55.727Z,24.65
2022-08-31T12:59:11.526Z,24.74
2022-08-31T13:01:20.639Z,24.69
2022-08-31T13:03:26.976Z,24.77
2022-08-31T13:05:32.696Z,24.76
2022-08-31T13:07:37.504Z,24.72
2022-08-31T13:09:42.362Z,24.65
2022-08-31T13:11:52.740Z,24.70
2022-08-31T13:14:12.802Z,24.49
2022-08-31T13:16:16.373Z,24.73
2022-08-31T13:18:23.982Z,24.78
2022-08-31T13:20:35.445Z,24.84
2022-08-31T13:22:41.167Z,24.80
2022-08-31T13:24:54.055Z,24.86
2022-08-31T13:27:05.981Z,24.96
2022-08-31T13:29:10.082Z,25.02
2022-08-31T13:31:21.597Z,25.08
2022-08-31T13:33:27.089Z,24.93
2022-08-31T13:35:35.685Z,25.14
2022-08-31T13:37:43.702Z,25.23
2022-08-31T13:39:47.997Z,24.44
2022-08-31T13:41:58.120Z,25.40
2022-08-31T13:44:05.343Z,25.29
2022-08-31T13:46:08.915Z,25.28
2022-08-31T13:48:16.324Z,25.25
2022-08-31T13:50:22.407Z,25.42
2022-08-31T13:52:29.088Z,25.43
2022-08-31T13:54:36.929Z,25.51
2022-08-31T13:56:59.848Z,25.71
2022-08-31T13:59:29.287Z,26.43
2022-08-31T14:01:34.061Z,27.23
2022-08-31T14:03:46.762Z,27.64
2022-08-31T14:05:58.858Z,28.04
2022-08-31T14:08:04.841Z,28.24
2022-08-31T14:10:21.944Z,28.19
2022-08-31T14:12:36.205Z,27.88
2022-08-31T14:14:43.224Z,28.30
2022-08-31T14:16:52.304Z,28.86
2022-08-31T14:18:56.391Z,29.07
2022-08-31T14:21:23.684Z,29.27
2022-08-31T14:23:34.799Z,28.51
2022-08-31T14:25:39.820Z,28.31
2022-08-31T14:27:43.199Z,28.61
2022-08-31T14:29:46.660Z,29.10
2022-08-31T14:31:52.595Z,28.83
2022-08-31T14:34:14.115Z,28.83
2022-08-31T14:36:19.307Z,28.69
2022-08-31T14:38:25.421Z,28.79
2022-08-31T14:40:29.816Z,29.38
2022-08-31T14:42:38.159Z,29.49
2022-08-31T14:44:46.662Z,29.28
2022-08-31T14:46:50.189Z,28.94
2022-08-31T14:48:53.661Z,29.19
2022-08-31T14:50:57.483Z,29.14
2022-08-31T14:53:01.493Z,29.09
2022-08-31T14:55:06.678Z,29.23
2022-08-31T14:57:12.824Z,29.49
2022-08-31T14:59:19.797Z,29.31
2022-08-31T15:01:27.041Z,28.95
2022-08-31T15:03:33.106Z,29.05
2022-08-31T15:05:39.271Z,29.21
2022-08-31T15:07:43.797Z,29.76
2022-08-31T15:09:50.190Z,29.66
2022-08-31T15:11:53.743Z,29.85
2022-08-31T15:13:57.187Z,30.04
2022-08-31T15:16:04.206Z,29.78
2022-08-31T15:18:07.750Z,29.40
2022-08-31T15:20:12.584Z,29.06
2022-08-31T15:22:16.201Z,28.44
2022-08-31T15:24:21.265Z,28.70
2022-08-31T15:26:24.812Z,29.25
2022-08-31T15:28:31.615Z,29.28
2022-08-31T15:30:39.696Z,29.14
2022-08-31T15:32:45.237Z,29.66
2022-08-31T15:34:53.445Z,29.91
2022-08-31T15:37:01.158Z,30.03
2022-08-31T15:39:07.154Z,29.92
2022-08-31T15:41:12.136Z,30.19
2022-08-31T15:43:15.857Z,30.60
2022-08-31T15:45:19.585Z,30.23
2022-08-31T15:47:41.698Z,29.68
2022-08-31T15:49:46.718Z,29.27
2022-08-31T15:51:53.974Z,29.07
2022-08-31T15:54:21.091Z,28.09
2022-08-31T15:56:29.315Z,27.56
2022-08-31T15:58:33.765Z,27.66
2022-08-31T16:00:38.176Z,27.54
2022-08-31T16:02:41.871Z,27.68
2022-08-31T16:04:48.252Z,28.02
2022-08-31T16:06:51.982Z,28.05
2022-08-31T16:08:55.709Z,28.05
2022-08-31T16:10:59.200Z,28.11
2022-08-31T16:13:07.586Z,28.02
2022-08-31T16:15:12.969Z,28.40
2022-08-31T16:17:19.087Z,28.46
2022-08-31T16:19:35.068Z,28.87
2022-08-31T16:21:45.432Z,29.00
2022-08-31T16:23:51.712Z,28.99
2022-08-31T16:25:55.151Z,28.87
2022-08-31T16:27:59.794Z,28.86
2022-08-31T16:30:03.191Z,28.28
2022-08-31T16:32:08.407Z,28.12
2022-08-31T16:34:13.377Z,28.07
2022-08-31T16:36:18.869Z,27.97
2022-08-31T16:38:23.594Z,27.88
2022-08-31T16:40:26.944Z,27.56
2022-08-31T16:42:30.472Z,27.49
2022-08-31T16:44:36.939Z,27.21
2022-08-31T16:46:41.628Z,27.39
2022-08-31T16:49:03.660Z,27.27
2022-08-31T16:51:15.018Z,27.20
2022-08-31T16:53:18.951Z,27.11
2022-08-31T16:55:23.719Z,27.05
2022-08-31T16:57:30.269Z,26.98
2022-08-31T16:59:33.630Z,26.97
2022-08-31T17:01:39.901Z,26.93
2022-08-31T17:03:47.128Z,26.87
2022-08-31T17:05:53.300Z,26.75
2022-08-31T17:07:57.646Z,26.59
2022-08-31T17:10:03.989Z,26.56
2022-08-31T17:12:13.030Z,26.51
2022-08-31T17:14:19.188Z,26.51
2022-08-31T17:16:22.810Z,26.36
2022-08-31T17:18:27.805Z,26.38
2022-08-31T17:20:31.320Z,26.08
2022-08-31T17:22:35.084Z,26.32
2022-08-31T17:24:45.030Z,26.28
2022-08-31T17:26:50.931Z,26.21
2022-08-31T17:29:00.126Z,26.12
2022-08-31T17:31:05.334Z,26.10
2022-08-31T17:33:12.689Z,26.18
2022-08-31T17:35:18.513Z,26.13
2022-08-31T17:37:25.920Z,26.11
2022-08-31T17:39:30.061Z,26.07
2022-08-31T17:41:33.409Z,25.96
2022-08-31T17:43:38.209Z,25.94
2022-08-31T17:45:42.987Z,25.97
2022-08-31T17:47:46.699Z,25.97
2022-08-31T17:49:50.831Z,25.62
2022-08-31T17:51:56.571Z,25.91
2022-08-31T17:54:02.922Z,25.91
2022-08-31T17:56:08.267Z,25.84
2022-08-31T17:58:11.732Z,25.23
2022-08-31T18:00:16.717Z,25.63
2022-08-31T18:02:25.393Z,25.53
2022-08-31T18:04:31.031Z,25.55
2022-08-31T18:06:35.034Z,25.47
2022-08-31T18:08:39.572Z,25.46
2022-08-31T18:10:43.016Z,25.42
2022-08-31T18:12:47.465Z,25.39
2022-08-31T18:14:50.999Z,25.39
2022-08-31T18:16:56.592Z,25.37
2022-08-31T18:19:01.284Z,25.43
2022-08-31T18:21:07.581Z,25.51
2022-08-31T18:23:11.443Z,25.49
2022-08-31T18:25:15.119Z,25.43
2022-08-31T18:27:18.781Z,25.44
2022-08-31T18:29:25.041Z,25.39
2022-08-31T18:31:31.187Z,25.29
2022-08-31T18:33:37.009Z,25.22
2022-08-31T18:35:48.733Z,25.22
2022-08-31T18:37:52.132Z,25.17
2022-08-31T18:40:13.076Z,25.20
2022-08-31T18:42:34.344Z,25.15
2022-08-31T18:44:56.858Z,25.16
2022-08-31T18:47:01.504Z,25.05
2022-08-31T18:49:12.176Z,25.12
2022-08-31T18:51:23.157Z,25.13
2022-08-31T18:53:28.818Z,25.00
2022-08-31T18:55:33.283Z,25.04
2022-08-31T18:57:48.888Z,25.00
2022-08-31T18:59:53.533Z,24.95
2022-08-31T19:01:56.995Z,25.02
2022-08-31T19:04:02.602Z,25.00
2022-08-31T19:06:06.561Z,25.02
2022-08-31T19:08:12.579Z,24.97
2022-08-31T19:10:16.188Z,24.88
2022-08-31T19:12:24.539Z,24.65
2022-08-31T19:14:29.092Z,24.70
2022-08-31T19:16:32.623Z,24.58
2022-08-31T19:18:36.331Z,24.53
2022-08-31T19:20:39.858Z,24.47
2022-08-31T19:22:43.400Z,24.34
2022-08-31T19:24:49.719Z,24.33
2022-08-31T19:26:55.374Z,24.35
2022-08-31T19:28:59.921Z,24.32
2022-08-31T19:31:03.347Z,24.37
2022-08-31T19:33:08.457Z,24.39
2022-08-31T19:35:11.860Z,24.43
2022-08-31T19:37:15.639Z,24.45
2022-08-31T19:39:22.226Z,24.45
2022-08-31T19:41:28.751Z,24.23
2022-08-31T19:43:54.908Z,24.21
2022-08-31T19:45:56.557Z,24.23
2022-08-31T19:48:12.769Z,24.06
2022-08-31T19:50:16.824Z,23.76
2022-08-31T19:52:20.481Z,23.79
2022-08-31T19:54:25.998Z,23.80
2022-08-31T19:56:31.483Z,23.89
2022-08-31T19:58:35.042Z,23.82
2022-08-31T20:00:39.032Z,23.84
2022-08-31T20:02:44.590Z,23.84
2022-08-31T20:04:48.076Z,23.57
2022-08-31T20:06:52.206Z,23.47
2022-08-31T20:08:56.596Z,23.60
2022-08-31T20:11:00.064Z,23.63
2022-08-31T20:13:04.836Z,23.63
2022-08-31T20:15:09.043Z,23.56
2022-08-31T20:17:12.445Z,23.68
2022-08-31T20:19:20.764Z,23.57
2022-08-31T20:21:27.199Z,23.54
2022-08-31T20:23:30.822Z,23.60
2022-08-31T20:25:37.965Z,23.58
2022-08-31T20:27:43.367Z,23.45
2022-08-31T20:29:48.464Z,23.48
2022-08-31T20:31:55.256Z,23.53
2022-08-31T20:33:59.880Z,23.51
2022-08-31T20:36:05.863Z,23.48
2022-08-31T20:38:14.169Z,23.50
2022-08-31T20:40:17.713Z,23.58
2022-08-31T20:42:21.930Z,23.64
2022-08-31T20:44:28.967Z,23.61
2022-08-31T20:46:51.472Z,23.61
2022-08-31T20:49:12.657Z,23.47
2022-08-31T20:51:18.182Z,23.49
2022-08-31T20:53:38.951Z,23.51
2022-08-31T20:55:45.157Z,23.48
2022-08-31T20:57:49.216Z,23.33
2022-08-31T20:59:52.854Z,23.32
2022-08-31T21:02:00.363Z,23.45
2022-08-31T21:04:04.793Z,23.47
2022-08-31T21:06:11.495Z,23.46
2022-08-31T21:08:15.952Z,23.43
2022-08-31T21:10:26.061Z,23.47
2022-08-31T21:12:40.672Z,23.52
2022-08-31T21:14:46.758Z,23.53
2022-08-31T21:16:50.420Z,23.55
2022-08-31T21:18:56.064Z,23.30
2022-08-31T21:21:03.367Z,23.57
2022-08-31T21:23:09.714Z,23.68
2022-08-31T21:25:13.815Z,23.74
2022-08-31T21:27:18.415Z,23.71
2022-08-31T21:29:21.811Z,23.66
2022-08-31T21:31:28.988Z,23.54
2022-08-31T21:33:33.361Z,23.37
2022-08-31T21:35:38.090Z,23.16
2022-08-31T21:37:41.551Z,22.94
2022-08-31T21:39:44.934Z,22.73
2022-08-31T21:41:49.383Z,22.54
2022-08-31T21:43:53.436Z,22.60
2022-08-31T21:46:08.755Z,22.49
2022-08-31T21:48:12.305Z,22.32
2022-08-31T21:50:16.048Z,22.22
2022-08-31T21:52:20.977Z,22.05
2022-08-31T21:54:28.156Z,22.06
2022-08-31T21:56:34.721Z,22.10
2022-08-31T21:58:39.371Z,22.22
2022-08-31T22:00:42.812Z,22.30
2022-08-31T22:02:46.888Z,22.42
2022-08-31T22:04:50.904Z,22.46
2022-08-31T22:06:54.752Z,22.49
2022-08-31T22:09:01.935Z,22.48
2022-08-31T22:11:08.672Z,22.40
2022-08-31T22:13:13.573Z,22.41
2022-08-31T22:15:17.604Z,22.30
2022-08-31T22:17:24.216Z,22.19
2022-08-31T22:19:38.907Z,22.19
2022-08-31T22:21:46.274Z,22.20
2022-08-31T22:23:52.472Z,22.21
2022-08-31T22:25:58.260Z,22.19
2022-08-31T22:28:01.669Z,22.23
2022-08-31T22:30:05.868Z,22.09
2022-08-31T22:32:12.164Z,22.03
2022-08-31T22:34:17.896Z,21.98
2022-08-31T22:36:31.802Z,21.94
2022-08-31T22:38:35.689Z,21.87
2022-08-31T22:40:39.765Z,21.92
2022-08-31T22:42:48.718Z,21.88
2022-08-31T22:44:52.107Z,21.86
2022-08-31T22:46:57.294Z,21.73
2022-08-31T22:49:00.901Z,21.85
2022-08-31T22:51:05.144Z,21.79
2022-08-31T22:53:09.325Z,21.70
2022-08-31T22:55:13.378Z,21.73
2022-08-31T22:57:17.177Z,21.79
2022-08-31T22:59:27.193Z,21.68
2022-08-31T23:01:33.353Z,21.69
2022-08-31T23:03:37.243Z,21.67
2022-08-31T23:05:44.969Z,21.64
2022-08-31T23:07:49.339Z,21.66
2022-08-31T23:09:52.699Z,21.68
2022-08-31T23:11:58.015Z,21.61
2022-08-31T23:14:06.655Z,21.60
2022-08-31T23:16:15.232Z,21.67
2022-08-31T23:18:20.349Z,21.50
2022-08-31T23:20:24.709Z,21.36
2022-08-31T23:22:29.519Z,21.25
2022-08-31T23:24:37.099Z,21.20
2022-08-31T23:26:41.366Z,21.01
2022-08-31T23:28:47.100Z,20.89
2022-08-31T23:30:51.287Z,20.74
2022-08-31T23:32:58.563Z,20.72
2022-08-31T23:35:03.618Z,20.67
2022-08-31T23:37:08.664Z,20.77
2022-08-31T23:39:12.265Z,20.77
2022-08-31T23:41:15.669Z,20.81
2022-08-31T23:43:20.233Z,20.86
2022-08-31T23:45:23.920Z,20.86
2022-08-31T23:47:30.917Z,20.87
2022-08-31T23:49:35.692Z,20.87
2022-08-31T23:51:39.318Z,20.97
2022-08-31T23:53:45.499Z,20.93
2022-08-31T23:55:49.048Z,20.99
2022-08-31T23:57:52.420Z,21.01
